CheckWX is a tool to help pilots better visualize weather data.  It is not intended as a substitute for an official pre-flight weather briefing.

18:27:25 UTC

KPNT METAR
Pontiac Municipal Airport
Pontiac, Illinois, USA
Current

32 mins ago

KPNT 241755Z AUTO 11015G20KT 10SM OVC100 17/01 A2997 RMK AO2 T01660009 10173 20081
Observed
Apr-24 @ 17:55 UTC
Wind
  • 110° at 15 KTS
  • Gusting to 20 KTS
Visibility
10 SM
Flight Rules
VFR
Cloud Levels
  • Overcast at 10,000' AGL
Temperature
17°C / 63°F
Dewpoint
C / 34°F
Humidity
34%
Altimeter
29.97" Hg
Pressure
1014.92 hPa
Previous

52 mins ago

KPNT 241735Z AUTO 11014G18KT 10SM BKN100 17/02 A2997 RMK AO2 T01670016
Observed
Apr-24 @ 17:35 UTC
Wind
  • 110° at 14 KTS
  • Gusting to 18 KTS
Visibility
10 SM
Flight Rules
VFR
Cloud Levels
  • Broken at 10,000' AGL
Temperature
17°C / 63°F
Dewpoint
C / 36°F
Humidity
37%
Altimeter
29.97" Hg
Pressure
1014.92 hPa
Previous

1 hour ago

KPNT 241715Z AUTO 11016G20KT 10SM SCT110 17/01 A2998 RMK AO2 T01680011
Observed
Apr-24 @ 17:15 UTC
Wind
  • 110° at 16 KTS
  • Gusting to 20 KTS
Visibility
10 SM
Flight Rules
VFR
Cloud Levels
  • Scattered at 11,000' AGL
Temperature
17°C / 63°F
Dewpoint
C / 34°F
Humidity
34%
Altimeter
29.98" Hg
Pressure
1015.22 hPa